• Join FlightAware (Why Join?)
  • Login
  • US Flag 
12:03PM EDT


 

Airport Tracker/Info


-or-


 

Live Flight TrackerFlight Track Log ✈ C-GSCW ✈ 13-Jun-2013 ✈ CYKZ - CYKZ

Flight Track Log - Related Links

Times and Time Zones

All times are in EDT time to prevent confusion due to time zone crossing. See the C-GSCW flight status page for this flight to view local times or setup timezone preferences in your user account.

Time Position Orientation Groundspeed Altitude Reporting Facility
EDT Latitude Longitude Course Direction KTS MPH feet Rate Location/Type
12:59PM 43.9333 -79.3333 360° North 110 127 3,100  Level Toronto Center
01:00PM 43.9500 -79.3333 360° North 100 115 3,100  Level Toronto Center
01:01PM 43.9833 -79.3167 20° North 100 115 3,100 -60 Level Toronto Center
01:02PM 43.9500 -79.3167 180° South 110 127 3,000  Descending Toronto Center
01:03PM 43.9167 -79.3167 180° South 130 150 3,200  Climbing Toronto Center
01:04PM 43.9167 -79.3333 270° West 110 127 3,100 -60 Descending Toronto Center
01:05PM 43.9500 -79.3333 360° North 100 115 3,100  Level Toronto Center
01:06PM 43.9667 -79.3333 360° North 100 115 3,100 -60 Level Toronto Center
01:07PM 43.9667 -79.2833 90° East 100 115 3,000  Descending Toronto Center
01:08PM 43.9333 -79.3167 216° Southwest 130 150 3,100  Climbing Toronto Center
01:09PM 43.9167 -79.3500 235° Southwest 130 150 3,000 -240 Descending Toronto Center
01:10PM 43.9333 -79.3333 36° Northeast 110 127 2,700 -180 Descending Toronto Center
01:11PM 43.9667 -79.3333 360° North 100 115 2,700  Level Toronto Center
01:12PM 44.0000 -79.3000 36° Northeast 110 127 2,700  Level Toronto Center
01:13PM 43.9833 -79.2833 144° Southeast 110 127 2,700 -240 Level Toronto Center
01:14PM 43.9500 -79.3167 216° Southwest 120 138 2,300 -360 Descending Toronto Center
01:15PM 43.9167 -79.3167 180° South 120 138 2,000 -540 Descending Toronto Center
01:16PM 43.8833 -79.3333 200° South 110 127 1,300 -360 Descending Toronto Center
01:17PM 43.8667 -79.3333 180° South 100 115 1,300 -60 Level Toronto Center
01:18PM 43.8333 -79.3333 180° South 100 115 1,200 -120 Descending Toronto Center